Time;durP1;ratioP1;P1;durP2;ratioP2;P2;SDS_P1;SDS_P2;PMS_P1;PMS_P2;Temp;Humidity;BMP_temperature;BMP_pressure;BME280_temperature;BME280_humidity;BME280_pressure;Samples;Min_cycle;Max_cycle;Signal;HPM_P1;HPM_P2
2021/07/17 00:01:15;;;;;;;35.60;17.42;;;;;;;16.66;79.30;100801.53;5054676;28;20093;-66
2021/07/17 00:03:59;;;;;;;;;;;;;;;16.62;79.48;100795.41;5054014;28;20088;-68
2021/07/17 00:06:43;;;;;;;35.90;16.23;;;;;;;16.63;79.52;100791.91;5054628;28;19923;-67
2021/07/17 00:09:27;;;;;;;34.05;17.30;;;;;;;16.63;79.50;100789.28;5054511;28;20069;-66
2021/07/17 00:12:22;;;;;;;33.22;16.73;;;;;;;16.64;79.55;100792.81;5053995;28;20133;-66
2021/07/17 00:15:20;;;;;;;27.52;17.17;;;;;;;16.62;79.63;100795.41;5053691;28;20411;-67
2021/07/17 00:18:17;;;;;;;33.22;16.10;;;;;;;16.62;79.44;100792.78;5054308;28;20048;-66
2021/07/17 00:21:15;;;;;;;30.35;16.70;;;;;;;16.62;79.43;100802.38;5053139;28;20051;-68
2021/07/17 00:24:11;;;;;;;31.30;17.67;;;;;;;16.61;79.49;100798.88;5053931;28;20067;-67
2021/07/17 00:27:06;;;;;;;27.52;16.25;;;;;;;16.61;79.74;100795.41;5053347;28;20095;-69
2021/07/17 00:30:01;;;;;;;28.88;16.20;;;;;;;16.59;79.52;100791.03;5052635;28;20176;-68
2021/07/17 00:32:46;;;;;;;35.85;17.58;;;;;;;16.60;79.77;100786.66;5067106;28;20064;-67
2021/07/17 00:35:30;;;;;;;23.40;16.65;;;;;;;16.61;79.67;100792.78;5052455;28;20582;-68
2021/07/17 00:38:15;;;;;;;34.90;16.83;;;;;;;16.60;79.65;100789.28;5054284;28;20055;-67
2021/07/17 00:41:10;;;;;;;25.55;16.35;;;;;;;16.59;79.69;100791.03;5053059;28;20048;-66
2021/07/17 00:44:09;;;;;;;30.20;15.88;;;;;;;16.59;79.70;100791.03;5053654;28;20130;-67
2021/07/17 00:47:05;;;;;;;28.33;16.98;;;;;;;16.59;79.64;100787.53;5067367;28;20043;-67
2021/07/17 00:50:04;;;;;;;26.25;16.88;;;;;;;16.58;79.79;100793.66;5052728;28;20140;-66
2021/07/17 00:53:00;;;;;;;32.08;16.75;;;;;;;16.58;79.81;100788.44;5053577;28;20043;-67
2021/07/17 00:55:55;;;;;;;31.83;15.98;;;;;;;16.58;79.62;100796.28;5053409;28;20047;-67
2021/07/17 00:58:58;;;;;;;34.40;16.55;;;;;;;16.56;79.82;100791.03;5052464;28;20048;-65
2021/07/17 01:01:43;;;;;;;32.88;15.95;;;;;;;16.57;79.66;100794.53;5052571;28;20404;-66
2021/07/17 01:04:28;;;;;;;33.85;14.55;;;;;;;16.57;79.67;100794.53;5053400;28;20044;-68
2021/07/17 01:07:25;;;;;;;31.27;15.30;;;;;;;16.56;79.70;100792.78;5052887;28;20051;-68
2021/07/17 01:10:21;;;;;;;37.42;15.35;;;;;;;16.55;80.07;100794.50;5053491;28;20051;-66
2021/07/17 01:13:17;;;;;;;37.97;17.58;;;;;;;16.54;79.81;100795.38;5052825;28;20086;-66
2021/07/17 01:16:12;;;;;;;28.08;14.43;;;;;;;16.54;79.53;100798.00;5053644;28;20522;-67
2021/07/17 01:19:09;;;;;;;32.03;14.35;;;;;;;16.54;79.75;100795.38;5066865;28;20047;-66
2021/07/17 01:22:04;;;;;;;28.77;14.32;;;;;;;16.53;79.70;100790.16;5052759;28;20052;-68
2021/07/17 01:24:59;;;;;;;29.02;14.70;;;;;;;16.53;79.70;100798.00;5052329;28;20048;-68
2021/07/17 01:27:46;;;;;;;40.08;15.75;;;;;;;16.52;79.78;100791.00;5052531;28;20111;-67
2021/07/17 01:30:35;;;;;;;30.05;14.90;;;;;;;16.50;79.75;100785.78;5052541;28;20562;-66
2021/07/17 01:33:19;;;;;;;27.92;14.02;;;;;;;16.51;79.83;100799.72;5052590;28;20453;-66
2021/07/17 01:36:17;;;;;;;34.80;14.35;;;;;;;16.50;79.75;100793.63;5053507;28;20463;-67
2021/07/17 01:39:13;;;;;;;30.70;14.15;;;;;;;16.50;79.74;100797.97;5052425;28;20095;-67
2021/07/17 01:42:09;;;;;;;31.80;13.25;;;;;;;16.50;79.83;100805.81;5053146;28;20056;-67
2021/07/17 01:44:58;;;;;;;33.80;14.55;;;;;;;16.47;79.86;100801.47;5051717;28;20072;-66
2021/07/17 01:47:55;;;;;;;23.35;13.82;;;;;;;16.47;79.96;100801.47;5069873;28;20541;-67
2021/07/17 01:50:51;;;;;;;29.73;14.13;;;;;;;16.47;79.86;100800.56;5056261;28;20124;-67
2021/07/17 01:53:48;;;;;;;30.08;13.98;;;;;;;16.44;79.74;100801.44;5056393;28;20083;-67
2021/07/17 01:56:43;;;;;;;24.85;14.20;;;;;;;16.44;79.84;100807.53;5056852;28;20162;-66
2021/07/17 01:59:27;;;;;;;26.67;13.55;;;;;;;16.43;79.94;100799.69;5056222;28;20064;-67
2021/07/17 02:02:12;;;;;;;;;;;;;;;16.39;79.76;100798.81;5056128;28;20435;-67
2021/07/17 02:05:01;;;;;;;22.67;12.95;;;;;;;16.40;79.73;100802.31;5055855;28;19923;-66
2021/07/17 02:07:59;;;;;;;30.35;14.32;;;;;;;16.39;79.66;100795.31;5056376;28;20052;-66
2021/07/17 02:10:54;;;;;;;24.13;13.60;;;;;;;16.38;79.76;100794.47;5056775;28;20528;-65
2021/07/17 02:13:53;;;;;;;28.58;13.38;;;;;;;16.37;79.68;100791.81;5057019;28;20068;-66
2021/07/17 02:16:49;;;;;;;30.75;13.25;;;;;;;16.37;79.84;100786.59;5056883;28;20044;-67
2021/07/17 02:19:44;;;;;;;25.10;13.75;;;;;;;16.35;79.75;100778.75;5055950;28;20080;-66
2021/07/17 02:22:40;;;;;;;29.85;13.10;;;;;;;16.34;79.91;100784.84;5056775;28;20189;-67
2021/07/17 02:25:35;;;;;;;38.22;14.48;;;;;;;16.34;79.72;100789.22;5056199;28;20124;-67
2021/07/17 02:28:22;;;;;;;32.22;13.75;;;;;;;16.34;80.01;100790.06;5055771;28;20174;-66
2021/07/17 02:31:07;;;;;;;27.15;12.77;;;;;;;16.35;79.80;100796.19;5055512;28;20074;-66
2021/07/17 02:33:51;;;;;;;22.38;12.48;;;;;;;16.34;79.72;100794.44;5056497;28;20048;-66
2021/07/17 02:36:36;;;;;;;34.63;13.32;;;;;;;16.32;79.68;100796.19;5055523;28;20469;-66
2021/07/17 02:39:31;;;;;;;32.00;14.18;;;;;;;16.33;80.01;100797.94;5055199;28;20136;-66
2021/07/17 02:42:24;;;;;;;24.92;12.88;;;;;;;16.32;79.87;100799.66;5055159;28;20127;-67
2021/07/17 02:45:20;;;;;;;29.27;12.65;;;;;;;16.32;79.76;100801.41;5055186;28;20048;-66
2021/07/17 02:48:15;;;;;;;26.27;13.68;;;;;;;16.32;79.76;100804.03;5055346;28;20048;-66
2021/07/17 02:51:12;;;;;;;23.45;12.80;;;;;;;16.29;79.89;100803.13;5055227;28;20518;-67
2021/07/17 02:54:09;;;;;;;23.77;12.95;;;;;;;16.32;79.85;100801.41;5069039;28;20136;-66
2021/07/17 02:57:05;;;;;;;31.98;13.07;;;;;;;16.30;79.68;100806.63;5055762;28;20507;-68
2021/07/17 02:59:49;;;;;;;29.48;13.50;;;;;;;16.32;79.75;100806.63;5055832;28;20052;-66
2021/07/17 03:02:33;;;;;;;32.60;14.70;;;;;;;16.31;79.74;100810.13;5054451;28;20136;-67
2021/07/17 03:05:17;;;;;;;33.50;13.13;;;;;;;16.29;79.93;100807.47;5054657;28;20412;-66
2021/07/17 03:08:01;;;;;;;30.13;14.35;;;;;;;16.29;79.66;100802.25;5054756;28;20048;-66
2021/07/17 03:10:57;;;;;;;;;;;;;;;16.25;79.83;100798.75;5056351;28;20095;-66
2021/07/17 03:13:53;;;;;;;30.42;14.50;;;;;;;16.26;79.97;100802.25;5054617;28;19920;-67
2021/07/17 03:16:48;;;;;;;32.60;14.40;;;;;;;16.28;79.40;100795.25;5055183;28;20044;-66
2021/07/17 03:19:44;;;;;;;22.38;12.25;;;;;;;16.26;79.84;100804.88;5054260;28;20067;-67
2021/07/17 03:22:40;;;;;;;23.50;13.07;;;;;;;16.25;79.90;100801.38;5054094;28;20094;-66
2021/07/17 03:25:36;;;;;;;28.17;13.88;;;;;;;16.26;79.94;100804.88;5055471;28;20052;-67
2021/07/17 03:28:31;;;;;;;26.27;14.05;;;;;;;16.26;79.95;100802.25;5054283;28;20048;-66
2021/07/17 03:31:26;;;;;;;26.23;12.70;;;;;;;16.25;79.88;100793.53;5054614;28;20444;-66
2021/07/17 03:34:10;;;;;;;28.30;13.43;;;;;;;16.26;79.76;100789.19;5055588;28;20107;-66
2021/07/17 03:36:54;;;;;;;26.52;12.75;;;;;;;16.25;79.92;100787.44;5054579;28;20047;-68
2021/07/17 03:39:50;;;;;;;31.65;13.00;;;;;;;16.24;79.97;100789.16;5054695;28;20122;-66
2021/07/17 03:42:46;;;;;;;27.98;14.52;;;;;;;16.23;79.78;100789.16;5055088;28;20159;-67
2021/07/17 03:45:41;;;;;;;29.90;13.43;;;;;;;16.23;79.97;100797.88;5053956;28;20122;-67
2021/07/17 03:48:37;;;;;;;24.20;12.55;;;;;;;16.23;79.82;100791.78;5055216;28;20122;-67
2021/07/17 03:51:32;;;;;;;25.33;13.40;;;;;;;16.22;79.80;100797.88;5068210;28;20068;-67
2021/07/17 03:54:28;;;;;;;33.30;14.68;;;;;;;16.22;79.98;100796.13;5054032;28;20582;-66
2021/07/17 03:57:23;;;;;;;32.17;12.52;;;;;;;16.22;79.91;100795.25;5054005;28;20125;-66
2021/07/17 04:00:11;;;;;;;25.52;13.57;;;;;;;16.22;79.78;100792.66;5053645;28;20044;-68
2021/07/17 04:02:55;;;;;;;28.10;14.32;;;;;;;16.22;79.76;100790.03;5067558;28;20060;-66
2021/07/17 04:05:39;;;;;;;33.97;13.38;;;;;;;16.22;79.80;100795.25;5054635;28;20546;-65
2021/07/17 04:08:26;;;;;;;32.38;13.82;;;;;;;16.22;79.86;100796.13;5053217;28;20095;-66
2021/07/17 04:11:24;;;;;;;31.52;15.10;;;;;;;16.20;79.76;100797.84;5053391;28;20048;-66
2021/07/17 04:14:20;;;;;;;23.85;13.15;;;;;;;16.20;79.76;100800.47;5054191;28;20051;-67
2021/07/17 04:17:15;;;;;;;32.03;14.05;;;;;;;16.20;79.81;100807.44;5053871;28;20048;-66
2021/07/17 04:20:11;;;;;;;27.52;13.88;;;;;;;16.20;79.72;100799.59;5053078;28;20097;-66
2021/07/17 04:23:07;;;;;;;33.22;14.60;;;;;;;16.19;79.62;100801.34;5054310;28;20522;-66
2021/07/17 04:26:03;;;;;;;33.53;13.95;;;;;;;16.20;79.80;100813.53;5054322;28;20439;-65
2021/07/17 04:28:58;;;;;;;31.98;13.68;;;;;;;16.18;79.85;100804.84;5054406;28;20047;-66
2021/07/17 04:31:42;;;;;;;28.20;13.82;;;;;;;16.20;79.87;100810.91;5054104;28;20052;-66
2021/07/17 04:34:27;;;;;;;23.60;12.95;;;;;;;16.20;79.87;100815.28;5053915;28;20079;-66
2021/07/17 04:37:14;;;;;;;;;;;;;;;16.17;79.68;100817.88;5054366;28;20617;-66
2021/07/17 04:40:10;;;;;;;27.35;13.80;;;;;;;16.18;79.64;100806.56;5052808;28;20387;-65
2021/07/17 04:43:06;;;;;;;29.33;14.13;;;;;;;16.17;79.93;100810.03;5052494;28;20626;-66
2021/07/17 04:46:01;;;;;;;32.33;15.73;;;;;;;16.18;79.91;100803.94;5053968;28;20051;-67
2021/07/17 04:48:54;;;;;;;26.20;14.20;;;;;;;16.17;79.82;100805.69;5067297;28;20194;-67
2021/07/17 04:51:50;;;;;;;27.15;14.15;;;;;;;16.20;79.68;100807.44;5053051;28;20523;-66
2021/07/17 04:54:45;;;;;;;34.35;14.25;;;;;;;16.20;79.73;100799.59;5053967;28;20048;-68
2021/07/17 04:57:46;;;;;;;27.65;13.63;;;;;;;16.19;79.54;100803.97;5052272;28;20047;-66
2021/07/17 05:00:33;;;;;;;24.60;13.43;;;;;;;16.20;79.97;100803.06;5052193;28;20132;-68
2021/07/17 05:03:17;;;;;;;30.92;13.02;;;;;;;16.21;79.74;100807.44;5053389;28;20064;-65
2021/07/17 05:06:03;;;;;;;27.50;14.40;;;;;;;16.20;79.92;100812.69;5053588;28;20531;-66
2021/07/17 05:08:47;;;;;;;26.27;15.38;;;;;;;16.21;79.78;100810.06;5052589;28;20419;-68
2021/07/17 05:11:43;;;;;;;31.83;15.45;;;;;;;16.21;79.77;100809.19;5053830;28;20055;-67
2021/07/17 05:14:38;;;;;;;31.88;14.85;;;;;;;16.21;79.72;100815.28;5066682;28;20095;-69
2021/07/17 05:17:36;;;;;;;29.50;14.13;;;;;;;16.21;79.77;100810.06;5052437;28;20118;-66
2021/07/17 05:20:32;;;;;;;22.90;14.50;;;;;;;16.22;79.84;100810.94;5053583;28;20079;-66
2021/07/17 05:23:27;;;;;;;28.88;16.13;;;;;;;16.21;79.83;100815.28;5052411;28;20162;-67
2021/07/17 05:26:25;;;;;;;32.03;13.57;;;;;;;16.23;80.16;100817.94;5052488;28;20048;-67
2021/07/17 05:29:24;;;;;;;35.95;15.43;;;;;;;16.24;80.26;100822.28;5053102;28;20531;-66
2021/07/17 05:32:08;;;;;;;28.83;15.20;;;;;;;16.24;79.76;100830.13;5052337;28;20052;-67
2021/07/17 05:34:52;;;;;;;27.52;14.02;;;;;;;16.24;79.96;100823.16;5053017;28;20408;-68
2021/07/17 05:37:39;;;;;;;31.33;15.40;;;;;;;16.25;80.06;100824.03;5053482;28;20072;-68
2021/07/17 05:40:35;;;;;;;30.27;14.63;;;;;;;16.24;79.84;100825.78;5066648;28;20138;-66
2021/07/17 05:43:30;;;;;;;31.73;16.17;;;;;;;16.26;79.88;100833.66;5052694;28;20052;-67
2021/07/17 05:46:26;;;;;;;24.65;14.80;;;;;;;16.26;80.04;100831.88;5052036;28;20047;-67
2021/07/17 05:49:24;;;;;;;29.25;15.38;;;;;;;16.26;79.96;100823.19;5051985;28;20090;-66
2021/07/17 05:52:20;;;;;;;31.05;15.18;;;;;;;16.26;79.96;100831.88;5052930;28;20048;-66
2021/07/17 05:55:19;;;;;;;31.40;15.85;;;;;;;16.26;80.10;100831.03;5052005;28;20511;-68
2021/07/17 05:58:14;;;;;;;23.98;15.13;;;;;;;16.27;79.81;100830.16;5065991;28;20091;-65
2021/07/17 06:01:02;;;;;;;31.98;16.58;;;;;;;16.27;79.97;100835.41;5052427;28;20048;-66
2021/07/17 06:03:47;;;;;;;31.58;14.82;;;;;;;16.27;80.11;100832.78;5065492;28;20064;-67
2021/07/17 06:06:31;;;;;;;29.88;15.68;;;;;;;16.29;80.34;100831.91;5052730;28;20515;-66
2021/07/17 06:09:18;;;;;;;28.88;15.05;;;;;;;16.30;79.84;100838.00;5052938;28;20044;-67
2021/07/17 06:12:16;;;;;;;35.55;16.52;;;;;;;16.30;80.04;100843.22;5053296;28;20111;-68
2021/07/17 06:15:15;;;;;;;28.17;15.32;;;;;;;16.31;79.84;100846.75;5053209;28;20052;-67
2021/07/17 06:18:10;;;;;;;34.13;16.77;;;;;;;16.32;79.91;100851.97;5051901;28;20130;-67
2021/07/17 06:21:11;;;;;;;24.55;14.88;;;;;;;16.32;79.88;100851.97;5051933;28;20124;-66
2021/07/17 06:24:06;;;;;;;30.40;16.05;;;;;;;16.33;80.17;100848.47;5051956;28;20546;-68
2021/07/17 06:27:02;;;;;;;31.65;16.70;;;;;;;16.34;79.97;100847.63;5051853;28;20048;-67
2021/07/17 06:29:51;;;;;;;32.20;14.30;;;;;;;16.36;80.00;100847.63;5052306;28;20130;-68
2021/07/17 06:32:35;;;;;;;37.13;16.13;;;;;;;16.35;79.92;100851.97;5053736;28;20040;-67
2021/07/17 06:35:19;;;;;;;35.75;17.15;;;;;;;16.36;80.04;100858.97;5056312;28;20047;-66
2021/07/17 06:38:03;;;;;;;30.33;15.68;;;;;;;16.38;80.35;100864.19;5055166;28;20083;-67
2021/07/17 06:40:58;;;;;;;26.80;15.55;;;;;;;16.39;80.01;100855.47;5069391;28;20047;-66
2021/07/17 06:43:54;;;;;;;28.67;16.02;;;;;;;16.39;80.02;100855.47;5055872;28;20118;-66
2021/07/17 06:46:49;;;;;;;28.38;16.73;;;;;;;16.40;79.89;100857.22;5055335;28;20055;-68
2021/07/17 06:49:45;;;;;;;29.48;15.45;;;;;;;16.40;80.03;100852.91;5056186;28;20075;-67
2021/07/17 06:52:41;;;;;;;35.70;16.00;;;;;;;16.41;80.28;100856.38;5054519;28;20041;-67
2021/07/17 06:55:37;;;;;;;29.08;16.55;;;;;;;16.41;79.99;100859.88;5055108;28;20479;-66
2021/07/17 06:58:32;;;;;;;30.70;15.23;;;;;;;16.43;79.97;100859.88;5055312;28;20144;-66
2021/07/17 07:01:25;;;;;;;33.85;15.85;;;;;;;16.43;79.91;100862.50;5055303;28;20197;-67
2021/07/17 07:04:09;;;;;;;28.40;15.00;;;;;;;16.44;79.92;100859.88;5055383;28;20056;-66
2021/07/17 07:06:52;;;;;;;30.23;15.73;;;;;;;16.46;80.02;100856.38;5069309;28;20094;-67
2021/07/17 07:09:51;;;;;;;24.13;14.95;;;;;;;16.45;80.18;100863.38;5056052;28;20561;-65
2021/07/17 07:12:47;;;;;;;28.13;15.45;;;;;;;16.47;80.09;100872.09;5055002;28;20044;-68
2021/07/17 07:15:42;;;;;;;33.83;16.27;;;;;;;16.49;79.99;100866.88;5054778;28;20052;-67
2021/07/17 07:18:37;;;;;;;32.60;15.10;;;;;;;16.48;79.90;100868.63;5055554;28;20079;-68
2021/07/17 07:21:33;;;;;;;31.85;15.23;;;;;;;16.49;79.99;100867.75;5054670;28;20095;-67
2021/07/17 07:24:29;;;;;;;27.08;14.27;;;;;;;16.50;79.88;100871.25;5055406;28;20095;-66
2021/07/17 07:27:25;;;;;;;35.10;16.42;;;;;;;16.52;79.86;100874.75;5054561;28;20427;-67
2021/07/17 07:30:09;;;;;;;26.33;15.30;;;;;;;16.53;79.93;100881.72;5054113;28;20106;-66
2021/07/17 07:32:59;;;;;;;27.30;14.13;;;;;;;16.54;79.91;100875.63;5055427;28;20095;-66
2021/07/17 07:35:45;;;;;;;31.30;15.15;;;;;;;16.55;79.70;100880.84;5054568;28;20404;-66
2021/07/17 07:38:30;;;;;;;27.58;14.40;;;;;;;16.57;79.73;100886.13;5053732;28;20051;-67
2021/07/17 07:41:14;;;;;;;26.63;14.32;;;;;;;16.57;79.87;100879.13;5054311;28;20132;-67
2021/07/17 07:44:10;;;;;;;29.88;14.00;;;;;;;16.58;79.81;100887.88;5055056;28;20473;-66
2021/07/17 07:47:06;;;;;;;29.20;13.88;;;;;;;16.58;79.75;100891.34;5054792;28;20067;-68
2021/07/17 07:50:02;;;;;;;22.77;13.32;;;;;;;16.58;79.54;100885.25;5053946;28;20055;-68
2021/07/17 07:52:58;;;;;;;30.95;14.60;;;;;;;16.59;79.82;100884.34;5054699;28;20463;-67
2021/07/17 07:55:54;;;;;;;26.35;14.43;;;;;;;16.59;79.74;100887.84;5054755;28;20063;-67
2021/07/17 07:58:50;;;;;;;25.15;14.70;;;;;;;16.60;79.88;100880.88;5054085;28;20048;-67
2021/07/17 08:01:42;;;;;;;31.52;14.32;;;;;;;16.60;79.86;100880.88;5053465;28;20118;-66
2021/07/17 08:04:32;;;;;;;31.08;14.52;;;;;;;16.62;79.68;100880.91;5053917;28;20051;-66
2021/07/17 08:07:16;;;;;;;25.50;13.25;;;;;;;16.62;79.68;100884.38;5067848;28;20561;-67
2021/07/17 08:10:00;;;;;;;;;;;;;;;16.62;79.52;100881.75;5054790;28;20084;-66
2021/07/17 08:12:44;;;;;;;27.00;13.75;;;;;;;16.63;79.55;100877.41;5054706;28;19962;-67
2021/07/17 08:15:28;;;;;;;;;;;;;;;16.62;79.70;100880.91;5055032;28;20048;-67
2021/07/17 08:18:24;;;;;;;25.90;14.55;;;;;;;16.62;79.47;100879.13;5054403;28;20391;-67
2021/07/17 08:21:19;;;;;;;20.70;12.73;;;;;;;16.63;79.82;100880.88;5054081;28;20569;-67
2021/07/17 08:24:11;;;;;;;28.98;14.60;;;;;;;16.66;79.63;100886.13;5053997;28;20525;-68
2021/07/17 08:27:06;;;;;;;29.88;14.93;;;;;;;16.67;79.47;100884.38;5054122;28;20389;-68
2021/07/17 08:30:02;;;;;;;26.67;14.45;;;;;;;16.68;79.46;100883.53;5053245;28;20610;-64
2021/07/17 08:32:57;;;;;;;29.40;14.57;;;;;;;16.68;79.58;100884.41;5067580;28;20095;-67
2021/07/17 08:35:52;;;;;;;23.25;12.75;;;;;;;16.71;79.31;100896.63;5053454;28;20064;-67
2021/07/17 08:38:45;;;;;;;32.78;17.42;;;;;;;16.70;79.39;100890.53;5053106;28;20099;-66
2021/07/17 08:41:34;;;;;;;25.58;14.55;;;;;;;16.73;79.41;100894.88;5053859;28;20060;-67
2021/07/17 08:44:18;;;;;;;26.90;14.02;;;;;;;16.73;79.32;100897.50;5053414;28;20094;-66
2021/07/17 08:47:04;;;;;;;28.63;15.05;;;;;;;16.74;79.46;100897.50;5053265;28;20060;-67
2021/07/17 08:49:48;;;;;;;29.77;15.20;;;;;;;16.77;79.44;100895.78;5066566;28;20063;-65
2021/07/17 08:52:44;;;;;;;23.50;14.52;;;;;;;16.77;79.45;100893.16;5053289;28;20519;-67
2021/07/17 08:55:45;;;;;;;24.10;14.13;;;;;;;16.78;79.34;100895.78;5053710;28;20531;-66
2021/07/17 08:58:41;;;;;;;26.95;14.07;;;;;;;16.81;79.24;100894.91;5053904;28;20052;-66
2021/07/17 09:01:37;;;;;;;24.52;14.48;;;;;;;16.83;79.15;100894.03;5053933;28;20104;-66
2021/07/17 09:04:35;;;;;;;30.70;15.68;;;;;;;16.87;79.26;100908.03;5052322;28;20098;-68
2021/07/17 09:07:32;;;;;;;26.98;15.57;;;;;;;16.91;79.21;100909.78;5066933;28;20146;-66
2021/07/17 09:10:39;;;;;;;27.67;14.90;;;;;;;16.93;78.93;100907.19;5053793;28;20106;-68
2021/07/17 09:13:27;;;;;;;21.13;14.70;;;;;;;16.95;79.17;100910.72;5053499;28;20044;-67
2021/07/17 09:16:12;;;;;;;32.70;16.20;;;;;;;16.99;79.20;100909.84;5052999;28;20052;-66
2021/07/17 09:18:57;;;;;;;25.08;15.27;;;;;;;17.00;78.88;100899.38;5052223;28;20154;-66
2021/07/17 09:21:41;;;;;;;;;;;;;;;17.00;79.20;100898.50;5053918;28;20133;-66
2021/07/17 09:24:26;;;;;;;26.77;15.55;;;;;;;17.02;79.08;100896.75;5052978;28;20002;-66
2021/07/17 09:27:20;;;;;;;21.73;13.32;;;;;;;17.04;79.06;100903.78;5052913;28;20094;-66
2021/07/17 09:30:27;;;;;;;24.75;13.20;;;;;;;17.07;79.07;100904.63;5052909;28;20052;-67
2021/07/17 09:33:22;;;;;;;28.15;14.40;;;;;;;17.10;79.02;100897.69;5050833;28;20051;-68
2021/07/17 09:36:20;;;;;;;29.67;14.88;;;;;;;17.15;78.90;100903.78;5052392;28;20105;-67
2021/07/17 09:39:21;;;;;;;27.30;13.88;;;;;;;17.19;78.88;100902.06;5052774;28;20099;-68
2021/07/17 09:42:20;;;;;;;22.88;13.52;;;;;;;17.24;78.97;100902.94;5053099;28;20087;-68
2021/07/17 09:45:33;;;;;;;24.58;14.98;;;;;;;17.29;79.19;100902.94;5052372;28;20071;-67
2021/07/17 09:48:20;;;;;;;22.85;12.57;;;;;;;17.33;78.87;100908.22;5052873;28;20148;-67
2021/07/17 09:51:08;;;;;;;30.00;14.45;;;;;;;17.36;78.96;100904.72;5052868;28;20056;-67
2021/07/17 09:53:59;;;;;;;19.15;13.25;;;;;;;17.39;78.84;100894.25;5052430;28;20120;-67
2021/07/17 09:56:43;;;;;;;26.33;12.90;;;;;;;17.43;78.75;100897.72;5052871;28;20048;-66
2021/07/17 09:59:27;;;;;;;24.45;13.23;;;;;;;17.45;78.80;100901.22;5053031;28;20091;-69
2021/07/17 10:02:27;;;;;;;24.08;13.35;;;;;;;17.48;79.02;100893.38;5052773;28;20075;-67
2021/07/17 10:05:38;;;;;;;20.40;12.55;;;;;;;17.51;78.83;100896.00;5051792;28;20047;-68
2021/07/17 10:08:37;;;;;;;19.63;12.52;;;;;;;17.53;78.81;100894.22;5055032;28;20055;-67
2021/07/17 10:11:33;;;;;;;22.33;13.45;;;;;;;17.56;78.91;100894.25;5055705;28;20040;-67
2021/07/17 10:14:33;;;;;;;21.67;11.95;;;;;;;17.59;78.79;100903.88;5056955;28;20128;-67
2021/07/17 10:17:42;;;;;;;23.38;13.52;;;;;;;17.60;78.72;100901.25;5056271;28;20083;-67
2021/07/17 10:20:34;;;;;;;25.30;14.07;;;;;;;17.62;78.89;100898.59;5055356;28;20148;-67
2021/07/17 10:23:29;;;;;;;28.45;13.68;;;;;;;17.64;78.68;100902.09;5055532;28;20048;-65
2021/07/17 10:26:14;;;;;;;20.83;13.13;;;;;;;17.68;78.45;100893.38;5055366;28;20174;-66
2021/07/17 10:29:01;;;;;;;;;;;;;;;17.70;78.77;100901.22;5056611;28;20079;-68
2021/07/17 10:31:48;;;;;;;22.42;12.48;;;;;;;17.70;78.69;100902.13;5069546;28;19920;-68
2021/07/17 10:34:47;;;;;;;21.50;13.20;;;;;;;17.72;78.67;100899.50;5055354;28;20048;-67
2021/07/17 10:37:46;;;;;;;25.38;13.30;;;;;;;17.73;78.74;100898.63;5056564;28;20102;-67
2021/07/17 10:40:39;;;;;;;21.83;13.13;;;;;;;17.76;78.86;100896.84;5055842;28;20052;-67
2021/07/17 10:43:35;;;;;;;20.95;12.35;;;;;;;17.79;78.73;100891.63;5056172;28;20044;-68
2021/07/17 10:46:39;;;;;;;24.23;12.23;;;;;;;17.82;78.67;100890.78;5069407;28;20055;-67
2021/07/17 10:49:41;;;;;;;23.10;12.95;;;;;;;17.84;78.65;100893.38;5054849;28;20052;-66
2021/07/17 10:52:49;;;;;;;31.50;13.10;;;;;;;17.87;78.72;100888.13;5055365;28;20456;-68
2021/07/17 10:55:36;;;;;;;21.65;11.77;;;;;;;17.88;78.58;100882.88;5055020;28;20519;-66
2021/07/17 10:58:23;;;;;;;24.52;12.65;;;;;;;17.90;78.39;100878.50;5056313;28;20064;-68
2021/07/17 11:01:07;;;;;;;23.77;12.32;;;;;;;17.92;78.60;100875.88;5056198;28;20048;-67
2021/07/17 11:03:57;;;;;;;26.15;12.60;;;;;;;17.94;78.18;100872.41;5054521;28;20099;-67
2021/07/17 11:06:43;;;;;;;25.30;12.00;;;;;;;17.98;78.43;100875.06;5068888;28;20063;-66
2021/07/17 11:09:30;;;;;;;17.50;11.73;;;;;;;18.01;78.67;100865.44;5056075;28;20451;-67
2021/07/17 11:12:25;;;;;;;21.55;12.68;;;;;;;18.04;78.55;100865.44;5069120;28;20048;-67
2021/07/17 11:15:33;;;;;;;24.65;11.48;;;;;;;18.08;78.79;100863.66;5055612;28;20080;-68
2021/07/17 11:18:31;;;;;;;21.67;12.20;;;;;;;18.10;78.59;100868.03;5054745;28;20412;-66
2021/07/17 11:21:32;;;;;;;21.45;12.35;;;;;;;18.14;78.79;100868.03;5055602;28;20119;-67
2021/07/17 11:24:27;;;;;;;23.52;10.77;;;;;;;18.17;78.82;100853.13;5054164;28;20477;-67
2021/07/17 11:27:38;;;;;;;15.90;10.93;;;;;;;18.20;78.68;100852.28;5054763;28;20048;-66
2021/07/17 11:30:36;;;;;;;18.35;10.57;;;;;;;18.22;78.43;100850.50;5055214;28;20503;-67
2021/07/17 11:33:31;;;;;;;22.98;10.80;;;;;;;18.24;78.55;100852.25;5055220;28;20550;-68
2021/07/17 11:36:33;;;;;;;19.20;10.82;;;;;;;18.28;78.53;100850.50;5055218;28;20171;-67
2021/07/17 11:39:34;;;;;;;20.63;10.98;;;;;;;18.32;78.80;100843.47;5055000;28;20055;-67
2021/07/17 11:42:27;;;;;;;20.15;11.35;;;;;;;18.34;78.64;100852.22;5054992;28;20457;-67
2021/07/17 11:45:12;;;;;;;21.85;10.82;;;;;;;18.35;78.44;100840.84;5054985;28;20060;-67
2021/07/17 11:48:08;;;;;;;;;;;;;;;18.35;78.58;100841.75;5055666;28;20175;-66
2021/07/17 11:51:06;;;;;;;18.40;9.85;;;;;;;18.36;78.54;100833.00;5054272;28;19920;-67
2021/07/17 11:54:05;;;;;;;20.83;9.85;;;;;;;18.38;78.58;100840.84;5055224;28;20071;-67
2021/07/17 11:57:21;;;;;;;17.75;10.25;;;;;;;18.41;78.73;100841.69;5053811;28;20532;-68
2021/07/17 12:00:24;;;;;;;19.75;9.95;;;;;;;18.44;78.77;100840.81;5053852;28;20079;-66
2021/07/17 12:03:21;;;;;;;18.88;9.20;;;;;;;18.45;78.59;100845.16;5053187;28;20155;-66
2021/07/17 12:06:13;;;;;;;17.92;8.73;;;;;;;18.49;78.63;100835.56;5054192;28;20522;-67
2021/07/17 12:09:10;;;;;;;16.67;8.38;;;;;;;18.52;78.77;100833.78;5054974;28;20052;-68
2021/07/17 12:12:24;;;;;;;13.43;8.30;;;;;;;18.56;78.43;100832.00;5054088;28;20126;-66
2021/07/17 12:15:33;;;;;;;18.40;9.65;;;;;;;18.58;78.53;100829.41;5053713;28;20102;-67
2021/07/17 12:18:28;;;;;;;16.65;8.30;;;;;;;18.59;78.34;100833.78;5054308;28;20056;-66
2021/07/17 12:21:24;;;;;;;23.50;9.75;;;;;;;18.62;78.59;100826.75;5053551;28;20554;-68
2021/07/17 12:24:21;;;;;;;21.77;9.80;;;;;;;18.66;78.53;100828.47;5053367;28;20051;-66
2021/07/17 12:27:16;;;;;;;19.75;10.52;;;;;;;18.68;78.35;100829.34;5053053;28;20043;-66
2021/07/17 12:30:13;;;;;;;20.45;10.10;;;;;;;18.70;78.43;100826.69;5052617;28;20059;-66
2021/07/17 12:33:18;;;;;;;15.40;8.82;;;;;;;18.72;78.61;100824.94;5053725;28;20055;-68
2021/07/17 12:36:10;;;;;;;14.05;9.15;;;;;;;18.74;78.48;100825.81;5054070;28;20044;-67
2021/07/17 12:39:02;;;;;;;17.35;9.00;;;;;;;18.78;78.52;100826.66;5053069;28;20040;-68
2021/07/17 12:42:02;;;;;;;14.05;8.68;;;;;;;18.80;78.70;100825.75;5053305;28;20051;-66
2021/07/17 12:44:59;;;;;;;15.70;9.50;;;;;;;18.85;78.63;100815.22;5053137;28;20493;-68
2021/07/17 12:47:55;;;;;;;20.02;9.32;;;;;;;18.86;78.52;100823.13;5053991;28;20103;-67
2021/07/17 12:51:01;;;;;;;15.30;8.68;;;;;;;18.89;78.49;100818.72;5053779;28;20458;-67
2021/07/17 12:54:06;;;;;;;17.00;8.75;;;;;;;18.92;78.39;100814.31;5066660;28;20090;-67
2021/07/17 12:57:10;;;;;;;18.60;8.50;;;;;;;18.95;78.56;100813.44;5053736;28;20048;-67
2021/07/17 12:59:57;;;;;;;17.95;8.50;;;;;;;18.96;78.58;100808.22;5066651;28;20109;-68
2021/07/17 13:02:41;;;;;;;17.20;8.32;;;;;;;18.99;78.30;100804.69;5052521;28;20060;-67
2021/07/17 13:05:48;;;;;;;20.88;9.40;;;;;;;19.01;78.45;100798.53;5053494;28;20443;-66
2021/07/17 13:08:54;;;;;;;13.18;8.13;;;;;;;19.02;78.68;100802.91;5053504;28;20052;-67
2021/07/17 13:11:54;;;;;;;13.15;7.95;;;;;;;19.01;78.38;100792.41;5053690;28;20117;-67